createdAt,value
2022-08-18T03:18:39.942Z,11.37
2022-08-18T03:21:52.439Z,12.80
2022-08-18T03:25:04.924Z,11.37
2022-08-18T03:28:16.173Z,10.83
2022-08-18T03:31:31.233Z,11.80
2022-08-18T03:34:42.761Z,13.00
2022-08-18T03:37:52.596Z,12.00
2022-08-18T03:41:02.881Z,11.87
2022-08-18T03:44:16.522Z,13.83
2022-08-18T03:47:29.606Z,13.10
2022-08-18T03:50:57.225Z,14.13
2022-08-18T03:54:07.221Z,13.00
2022-08-18T03:57:16.793Z,15.73
2022-08-18T04:00:27.332Z,15.00
2022-08-18T04:03:44.155Z,15.37
2022-08-18T04:06:58.976Z,16.47
2022-08-18T04:10:17.019Z,15.53
2022-08-18T04:13:29.236Z,15.77
2022-08-18T04:16:39.165Z,16.17
2022-08-18T04:19:48.662Z,16.93
2022-08-18T04:23:09.703Z,15.70
2022-08-18T04:26:21.961Z,15.93
2022-08-18T04:29:32.012Z,14.50
2022-08-18T04:32:45.241Z,14.63
2022-08-18T04:35:55.671Z,15.10
2022-08-18T04:39:19.558Z,15.60
2022-08-18T04:42:33.769Z,15.40
2022-08-18T04:45:44.784Z,15.70
2022-08-18T04:48:58.845Z,15.50
2022-08-18T04:52:40.737Z,15.20
2022-08-18T04:55:54.172Z,15.90
2022-08-18T04:59:08.716Z,18.43
2022-08-18T07:39:52.507Z,37.70
2022-08-18T07:43:06.235Z,35.27
2022-08-18T07:46:22.227Z,38.90
2022-08-18T07:49:36.323Z,38.80
2022-08-18T07:52:54.607Z,34.67
2022-08-18T07:56:13.132Z,35.53
2022-08-18T07:59:30.035Z,35.67
2022-08-18T08:02:54.694Z,36.37
2022-08-18T08:06:13.835Z,33.33
2022-08-18T08:09:31.713Z,32.83
2022-08-18T08:12:51.452Z,32.53
2022-08-18T08:16:06.302Z,39.57
2022-08-18T08:20:00.192Z,32.40
2022-08-18T08:23:23.079Z,35.83
2022-08-18T08:27:03.098Z,36.97
2022-08-18T08:30:19.495Z,35.87
2022-08-18T08:33:45.049Z,41.17
2022-08-18T08:37:01.377Z,32.27
2022-08-18T08:40:19.520Z,39.67
2022-08-18T08:43:33.281Z,33.90
2022-08-18T08:46:53.720Z,31.80
2022-08-18T08:50:15.128Z,37.77
2022-08-18T08:53:28.979Z,37.37
2022-08-18T08:56:47.955Z,36.50
2022-08-18T09:00:03.588Z,33.20
2022-08-18T09:03:31.510Z,38.13
2022-08-18T09:06:50.959Z,42.53
2022-08-18T09:10:25.017Z,43.33
2022-08-18T09:13:57.184Z,36.50
2022-08-18T09:17:34.280Z,39.53
2022-08-18T09:20:57.303Z,34.30
2022-08-18T09:24:19.737Z,38.03
2022-08-18T09:28:08.877Z,35.80
2022-08-18T09:31:20.395Z,36.40
2022-08-18T09:34:45.328Z,41.13
2022-08-18T09:38:15.741Z,37.40
2022-08-18T09:41:49.069Z,32.73
2022-08-18T09:48:42.882Z,35.33
2022-08-18T09:51:55.708Z,35.43
2022-08-18T09:55:40.686Z,32.47
2022-08-18T09:59:09.689Z,34.03
2022-08-18T10:02:51.470Z,31.73
2022-08-18T10:06:15.659Z,30.93
2022-08-18T10:09:37.995Z,27.00
2022-08-18T10:13:08.577Z,31.13
2022-08-18T10:16:28.182Z,34.03
2022-08-18T10:19:54.220Z,31.13
2022-08-18T10:27:03.072Z,25.67
2022-08-18T10:30:57.678Z,23.57
2022-08-18T10:34:39.305Z,25.57
2022-08-18T10:37:51.270Z,26.87
2022-08-18T10:41:15.255Z,22.70
2022-08-18T10:44:30.886Z,24.87
2022-08-18T10:47:43.349Z,24.33
2022-08-18T10:54:51.783Z,24.30
2022-08-18T10:58:23.959Z,22.57
2022-08-18T11:01:53.434Z,24.40
2022-08-18T11:05:09.823Z,23.10
2022-08-18T11:08:25.080Z,25.57
2022-08-18T11:11:45.602Z,22.50
2022-08-18T11:15:23.455Z,23.20
2022-08-18T11:18:43.325Z,23.33
2022-08-18T11:21:55.983Z,22.67
2022-08-18T11:25:23.543Z,22.63
2022-08-18T11:28:44.889Z,18.77
2022-08-18T11:32:02.165Z,18.40
2022-08-18T11:35:18.743Z,18.73
2022-08-18T11:43:21.458Z,19.57
2022-08-18T11:46:38.806Z,21.10
2022-08-18T11:49:56.696Z,17.20
2022-08-18T11:53:18.956Z,20.03
2022-08-18T12:01:39.040Z,19.13
2022-08-18T12:04:54.334Z,18.17
2022-08-18T12:08:09.095Z,16.10
2022-08-18T12:11:29.305Z,15.43
2022-08-18T12:15:00.576Z,15.70
2022-08-18T12:18:26.573Z,16.07
2022-08-18T12:21:40.932Z,14.37
2022-08-18T12:24:52.613Z,13.83
2022-08-18T12:28:03.078Z,13.43
2022-08-18T12:31:21.309Z,14.07
2022-08-18T12:34:40.703Z,12.47
2022-08-18T12:38:11.191Z,11.77
2022-08-18T12:41:23.958Z,12.60
2022-08-18T12:44:34.704Z,12.90
2022-08-18T12:47:44.700Z,11.83
2022-08-18T12:50:59.629Z,12.67
2022-08-18T12:54:10.877Z,13.07
2022-08-18T12:57:52.596Z,11.20
2022-08-18T13:00:56.732Z,12.73
2022-08-18T13:04:13.183Z,12.80
2022-08-18T13:07:24.991Z,12.83
2022-08-18T13:10:46.675Z,11.90
2022-08-18T13:13:57.408Z,12.70
2022-08-18T13:17:13.122Z,11.47
2022-08-18T13:20:37.855Z,11.33
2022-08-18T13:23:53.474Z,12.00
2022-08-18T13:27:18.439Z,11.50
2022-08-18T13:30:35.699Z,11.47
2022-08-18T13:33:57.235Z,12.03
2022-08-18T13:37:09.295Z,11.73
2022-08-18T13:40:22.482Z,11.63
2022-08-18T13:43:37.994Z,12.63
2022-08-18T13:46:52.048Z,12.27
2022-08-18T13:50:02.147Z,11.10
2022-08-18T13:53:19.369Z,11.50
2022-08-18T13:56:32.021Z,10.33
2022-08-18T13:59:46.548Z,12.40
2022-08-18T14:02:58.639Z,12.83
2022-08-18T14:06:09.049Z,11.90
2022-08-18T14:09:28.089Z,10.67
2022-08-18T14:12:49.729Z,8.43
2022-08-18T14:16:01.236Z,7.70
2022-08-18T14:19:23.830Z,7.93
2022-08-18T14:22:45.276Z,8.00
2022-08-18T14:26:06.246Z,8.53
2022-08-18T14:29:46.428Z,9.10
2022-08-18T14:32:50.715Z,9.13
2022-08-18T14:36:06.400Z,8.93
2022-08-18T14:39:19.520Z,9.10
2022-08-18T14:42:41.022Z,8.80
2022-08-18T14:45:53.794Z,8.60
2022-08-18T14:49:08.515Z,8.40
2022-08-18T14:52:18.644Z,8.53
2022-08-18T14:55:30.525Z,8.73
2022-08-18T14:58:41.111Z,8.40
2022-08-18T15:01:53.640Z,7.47
2022-08-18T15:05:19.791Z,7.20
2022-08-18T15:08:36.459Z,6.70
2022-08-18T15:11:46.601Z,6.63
2022-08-18T15:15:02.112Z,6.73
2022-08-18T15:18:13.905Z,7.60
2022-08-18T15:21:38.718Z,7.97
2022-08-18T15:25:02.983Z,7.47
2022-08-18T15:28:19.072Z,8.60
2022-08-18T15:35:02.223Z,11.87
2022-08-18T15:38:24.603Z,11.07
2022-08-18T15:41:44.171Z,12.30
2022-08-18T15:44:56.770Z,12.77
2022-08-18T15:48:09.592Z,13.70
2022-08-18T15:51:24.616Z,13.20
2022-08-18T15:54:35.999Z,13.20
2022-08-18T15:57:46.680Z,15.50
2022-08-18T16:00:58.946Z,15.63
2022-08-18T16:07:25.233Z,14.80
2022-08-18T16:10:52.219Z,15.33
2022-08-18T16:14:02.690Z,14.40
2022-08-18T16:17:23.763Z,13.97
2022-08-18T16:20:34.297Z,14.53
2022-08-18T16:23:48.122Z,14.80
2022-08-18T16:26:58.497Z,14.33
2022-08-18T16:30:11.179Z,14.60
2022-08-18T16:33:21.888Z,15.03
2022-08-18T16:36:32.423Z,15.23
2022-08-18T16:39:44.391Z,15.53
2022-08-18T16:42:56.227Z,15.43
2022-08-18T16:46:11.396Z,16.73
2022-08-18T16:49:21.951Z,16.53
2022-08-18T16:52:35.058Z,16.43
2022-08-18T16:55:46.698Z,16.67
2022-08-18T16:59:07.956Z,16.87
2022-08-18T17:02:31.793Z,15.97
2022-08-18T17:05:42.157Z,14.77
2022-08-18T17:08:52.600Z,15.30
2022-08-18T17:12:05.079Z,14.00
2022-08-18T17:15:16.187Z,13.43
2022-08-18T17:18:27.222Z,14.20
2022-08-18T17:21:38.628Z,12.60
2022-08-18T17:24:49.700Z,13.70
2022-08-18T17:28:02.938Z,13.03
2022-08-18T17:31:17.703Z,12.47
2022-08-18T17:34:35.039Z,12.97
2022-08-18T17:37:53.658Z,13.93
2022-08-18T17:41:06.741Z,13.10
2022-08-18T17:44:18.524Z,14.43
2022-08-18T17:47:34.297Z,14.20
2022-08-18T17:51:00.763Z,14.57
2022-08-18T17:54:19.350Z,15.13
2022-08-18T17:57:33.062Z,14.67
2022-08-18T18:00:49.046Z,15.57
2022-08-18T18:04:00.543Z,15.37
2022-08-18T18:07:23.333Z,15.43
2022-08-18T18:10:51.145Z,15.43
2022-08-18T18:14:24.291Z,15.70
2022-08-18T18:17:39.931Z,16.53
2022-08-18T18:21:00.186Z,16.23
2022-08-18T18:24:16.335Z,15.53
2022-08-18T18:27:31.272Z,16.13
2022-08-18T18:30:41.683Z,15.37
2022-08-18T18:34:01.741Z,15.97
2022-08-18T18:37:26.485Z,15.80
2022-08-18T18:40:40.100Z,16.53
2022-08-18T18:43:52.721Z,15.93
2022-08-18T18:47:10.596Z,15.83
2022-08-18T18:50:30.102Z,16.10
2022-08-18T18:53:52.682Z,16.23
2022-08-18T18:57:10.886Z,16.50
2022-08-18T19:00:30.209Z,16.90
2022-08-18T19:04:07.972Z,16.30
2022-08-18T19:07:26.742Z,16.77
2022-08-18T19:10:41.367Z,16.43
2022-08-18T19:13:56.943Z,16.90
2022-08-18T19:17:13.586Z,16.80
2022-08-18T19:20:29.404Z,17.60
2022-08-18T19:23:47.808Z,17.27
2022-08-18T19:27:04.941Z,17.57
2022-08-18T19:30:18.379Z,18.30
2022-08-18T19:33:33.817Z,16.07
2022-08-18T19:36:52.607Z,17.20
2022-08-18T19:40:12.908Z,17.50
2022-08-18T19:43:30.106Z,17.60
2022-08-18T19:46:45.804Z,18.60
2022-08-18T19:50:05.849Z,17.97
2022-08-18T19:53:33.553Z,17.07
2022-08-18T19:56:59.025Z,16.53
2022-08-18T20:00:22.811Z,17.30
